sensor_id;sensor_type;location;lat;lon;timestamp;P1;durP1;ratioP1;P2;durP2;ratioP2
14584;SDS011;7379;51.506;11.876;2024-02-04T00:01:59;4.10;;;3.70;;
14584;SDS011;7379;51.506;11.876;2024-02-04T00:04:27;4.00;;;3.60;;
14584;SDS011;7379;51.506;11.876;2024-02-04T00:06:54;4.18;;;3.78;;
14584;SDS011;7379;51.506;11.876;2024-02-04T00:09:21;5.38;;;3.60;;
14584;SDS011;7379;51.506;11.876;2024-02-04T00:11:49;3.97;;;3.58;;
14584;SDS011;7379;51.506;11.876;2024-02-04T00:14:16;4.10;;;3.70;;
14584;SDS011;7379;51.506;11.876;2024-02-04T00:16:43;4.00;;;3.58;;
14584;SDS011;7379;51.506;11.876;2024-02-04T00:19:09;4.10;;;3.70;;
14584;SDS011;7379;51.506;11.876;2024-02-04T00:21:37;3.95;;;3.42;;
14584;SDS011;7379;51.506;11.876;2024-02-04T00:24:04;4.45;;;4.05;;
14584;SDS011;7379;51.506;11.876;2024-02-04T00:26:32;4.10;;;3.70;;
14584;SDS011;7379;51.506;11.876;2024-02-04T00:28:59;4.50;;;4.10;;
14584;SDS011;7379;51.506;11.876;2024-02-04T00:31:25;4.60;;;4.20;;
14584;SDS011;7379;51.506;11.876;2024-02-04T00:33:52;4.68;;;4.18;;
14584;SDS011;7379;51.506;11.876;2024-02-04T00:36:19;4.65;;;4.22;;
14584;SDS011;7379;51.506;11.876;2024-02-04T00:38:48;4.75;;;3.95;;
14584;SDS011;7379;51.506;11.876;2024-02-04T00:41:14;4.70;;;4.13;;
14584;SDS011;7379;51.506;11.876;2024-02-04T00:43:41;4.93;;;4.22;;
14584;SDS011;7379;51.506;11.876;2024-02-04T00:46:08;4.97;;;4.50;;
14584;SDS011;7379;51.506;11.876;2024-02-04T00:48:36;4.90;;;4.18;;
14584;SDS011;7379;51.506;11.876;2024-02-04T00:51:02;5.10;;;4.60;;
14584;SDS011;7379;51.506;11.876;2024-02-04T00:53:29;5.07;;;4.45;;
14584;SDS011;7379;51.506;11.876;2024-02-04T00:56:00;5.43;;;4.68;;
14584;SDS011;7379;51.506;11.876;2024-02-04T00:58:27;4.75;;;4.25;;
14584;SDS011;7379;51.506;11.876;2024-02-04T01:00:53;4.97;;;4.45;;
14584;SDS011;7379;51.506;11.876;2024-02-04T01:03:20;5.65;;;5.13;;
14584;SDS011;7379;51.506;11.876;2024-02-04T01:05:47;5.22;;;4.60;;
14584;SDS011;7379;51.506;11.876;2024-02-04T01:08:14;5.10;;;4.60;;
14584;SDS011;7379;51.506;11.876;2024-02-04T01:10:40;5.93;;;5.15;;
14584;SDS011;7379;51.506;11.876;2024-02-04T01:13:08;4.93;;;4.40;;
14584;SDS011;7379;51.506;11.876;2024-02-04T01:15:35;5.60;;;5.00;;
14584;SDS011;7379;51.506;11.876;2024-02-04T01:18:02;7.32;;;4.97;;
14584;SDS011;7379;51.506;11.876;2024-02-04T01:20:29;5.78;;;4.93;;
14584;SDS011;7379;51.506;11.876;2024-02-04T01:22:56;6.28;;;5.10;;
14584;SDS011;7379;51.506;11.876;2024-02-04T01:25:23;6.38;;;5.18;;
14584;SDS011;7379;51.506;11.876;2024-02-04T01:27:49;5.88;;;5.00;;
14584;SDS011;7379;51.506;11.876;2024-02-04T01:30:17;6.90;;;5.25;;
14584;SDS011;7379;51.506;11.876;2024-02-04T01:32:44;6.20;;;5.07;;
14584;SDS011;7379;51.506;11.876;2024-02-04T01:35:11;5.90;;;5.25;;
14584;SDS011;7379;51.506;11.876;2024-02-04T01:37:40;5.60;;;5.00;;
14584;SDS011;7379;51.506;11.876;2024-02-04T01:40:08;5.90;;;4.72;;
14584;SDS011;7379;51.506;11.876;2024-02-04T01:42:36;5.90;;;5.30;;
14584;SDS011;7379;51.506;11.876;2024-02-04T01:45:03;5.93;;;5.05;;
14584;SDS011;7379;51.506;11.876;2024-02-04T01:47:31;7.38;;;5.47;;
14584;SDS011;7379;51.506;11.876;2024-02-04T01:49:58;5.72;;;5.18;;
14584;SDS011;7379;51.506;11.876;2024-02-04T01:52:25;5.30;;;4.80;;
14584;SDS011;7379;51.506;11.876;2024-02-04T01:54:52;6.03;;;5.15;;
14584;SDS011;7379;51.506;11.876;2024-02-04T01:57:19;5.40;;;4.90;;
14584;SDS011;7379;51.506;11.876;2024-02-04T01:59:47;6.07;;;5.18;;
14584;SDS011;7379;51.506;11.876;2024-02-04T02:02:16;7.20;;;5.68;;
14584;SDS011;7379;51.506;11.876;2024-02-04T02:04:45;6.13;;;4.90;;
14584;SDS011;7379;51.506;11.876;2024-02-04T02:07:13;5.82;;;5.18;;
14584;SDS011;7379;51.506;11.876;2024-02-04T02:09:41;6.50;;;5.60;;
14584;SDS011;7379;51.506;11.876;2024-02-04T02:12:09;5.90;;;5.25;;
14584;SDS011;7379;51.506;11.876;2024-02-04T02:14:40;7.30;;;5.47;;
14584;SDS011;7379;51.506;11.876;2024-02-04T02:17:10;7.13;;;5.57;;
14584;SDS011;7379;51.506;11.876;2024-02-04T02:19:46;5.93;;;5.32;;
14584;SDS011;7379;51.506;11.876;2024-02-04T02:22:22;7.78;;;5.78;;
14584;SDS011;7379;51.506;11.876;2024-02-04T02:24:53;6.68;;;5.60;;
14584;SDS011;7379;51.506;11.876;2024-02-04T02:27:24;6.90;;;5.28;;
14584;SDS011;7379;51.506;11.876;2024-02-04T02:29:50;6.80;;;5.55;;
14584;SDS011;7379;51.506;11.876;2024-02-04T02:32:17;7.05;;;5.82;;
14584;SDS011;7379;51.506;11.876;2024-02-04T02:34:44;6.50;;;5.72;;
14584;SDS011;7379;51.506;11.876;2024-02-04T02:37:16;6.72;;;5.70;;
14584;SDS011;7379;51.506;11.876;2024-02-04T02:39:55;6.55;;;5.70;;
14584;SDS011;7379;51.506;11.876;2024-02-04T02:42:25;7.25;;;5.93;;
14584;SDS011;7379;51.506;11.876;2024-02-04T02:44:53;6.28;;;5.35;;
14584;SDS011;7379;51.506;11.876;2024-02-04T02:47:20;6.53;;;5.43;;
14584;SDS011;7379;51.506;11.876;2024-02-04T02:49:50;7.18;;;5.63;;
14584;SDS011;7379;51.506;11.876;2024-02-04T02:52:17;7.80;;;5.85;;
14584;SDS011;7379;51.506;11.876;2024-02-04T02:54:44;5.80;;;5.25;;
14584;SDS011;7379;51.506;11.876;2024-02-04T02:57:12;6.68;;;5.68;;
14584;SDS011;7379;51.506;11.876;2024-02-04T02:59:39;8.20;;;5.80;;
14584;SDS011;7379;51.506;11.876;2024-02-04T03:02:06;7.53;;;6.10;;
14584;SDS011;7379;51.506;11.876;2024-02-04T03:04:32;6.72;;;5.75;;
14584;SDS011;7379;51.506;11.876;2024-02-04T03:06:59;7.88;;;5.43;;
14584;SDS011;7379;51.506;11.876;2024-02-04T03:09:26;6.75;;;6.05;;
14584;SDS011;7379;51.506;11.876;2024-02-04T03:11:52;7.05;;;5.57;;
14584;SDS011;7379;51.506;11.876;2024-02-04T03:14:21;6.20;;;5.60;;
14584;SDS011;7379;51.506;11.876;2024-02-04T03:16:48;7.72;;;5.85;;
14584;SDS011;7379;51.506;11.876;2024-02-04T03:19:15;6.60;;;5.90;;
14584;SDS011;7379;51.506;11.876;2024-02-04T03:21:42;6.20;;;5.60;;
14584;SDS011;7379;51.506;11.876;2024-02-04T03:24:08;7.60;;;5.85;;
14584;SDS011;7379;51.506;11.876;2024-02-04T03:26:35;7.18;;;5.70;;
14584;SDS011;7379;51.506;11.876;2024-02-04T03:29:02;7.50;;;5.82;;
14584;SDS011;7379;51.506;11.876;2024-02-04T03:31:31;7.45;;;5.72;;
14584;SDS011;7379;51.506;11.876;2024-02-04T03:33:57;7.82;;;6.15;;
14584;SDS011;7379;51.506;11.876;2024-02-04T03:36:24;6.35;;;5.75;;
14584;SDS011;7379;51.506;11.876;2024-02-04T03:38:51;7.65;;;5.78;;
14584;SDS011;7379;51.506;11.876;2024-02-04T03:41:18;8.05;;;6.15;;
14584;SDS011;7379;51.506;11.876;2024-02-04T03:43:45;7.03;;;5.63;;
14584;SDS011;7379;51.506;11.876;2024-02-04T03:46:12;6.88;;;5.28;;
14584;SDS011;7379;51.506;11.876;2024-02-04T03:48:41;6.10;;;5.38;;
14584;SDS011;7379;51.506;11.876;2024-02-04T03:51:14;7.43;;;5.53;;
14584;SDS011;7379;51.506;11.876;2024-02-04T03:53:41;5.95;;;5.30;;
14584;SDS011;7379;51.506;11.876;2024-02-04T03:56:07;6.70;;;5.28;;
14584;SDS011;7379;51.506;11.876;2024-02-04T03:58:34;6.53;;;5.45;;
14584;SDS011;7379;51.506;11.876;2024-02-04T04:01:01;6.68;;;5.00;;
14584;SDS011;7379;51.506;11.876;2024-02-04T04:03:27;6.10;;;5.22;;
14584;SDS011;7379;51.506;11.876;2024-02-04T04:05:56;5.80;;;5.17;;
14584;SDS011;7379;51.506;11.876;2024-02-04T04:08:22;6.38;;;4.65;;
14584;SDS011;7379;51.506;11.876;2024-02-04T04:10:49;6.43;;;5.15;;
14584;SDS011;7379;51.506;11.876;2024-02-04T04:13:16;6.90;;;5.32;;
14584;SDS011;7379;51.506;11.876;2024-02-04T04:15:42;5.70;;;5.00;;
14584;SDS011;7379;51.506;11.876;2024-02-04T04:18:09;5.68;;;5.07;;
14584;SDS011;7379;51.506;11.876;2024-02-04T04:20:37;6.88;;;5.45;;
14584;SDS011;7379;51.506;11.876;2024-02-04T04:23:05;5.55;;;4.97;;
14584;SDS011;7379;51.506;11.876;2024-02-04T04:25:32;6.53;;;5.20;;
14584;SDS011;7379;51.506;11.876;2024-02-04T04:27:59;6.20;;;5.20;;
14584;SDS011;7379;51.506;11.876;2024-02-04T04:30:26;5.30;;;4.65;;
14584;SDS011;7379;51.506;11.876;2024-02-04T04:32:52;6.15;;;4.70;;
14584;SDS011;7379;51.506;11.876;2024-02-04T04:35:19;5.78;;;5.07;;
14584;SDS011;7379;51.506;11.876;2024-02-04T04:37:46;5.00;;;4.40;;
14584;SDS011;7379;51.506;11.876;2024-02-04T04:40:14;5.03;;;4.50;;
14584;SDS011;7379;51.506;11.876;2024-02-04T04:42:41;5.50;;;4.90;;
14584;SDS011;7379;51.506;11.876;2024-02-04T04:45:07;5.40;;;4.70;;
14584;SDS011;7379;51.506;11.876;2024-02-04T04:47:35;5.57;;;4.95;;
14584;SDS011;7379;51.506;11.876;2024-02-04T04:50:03;5.05;;;4.53;;
14584;SDS011;7379;51.506;11.876;2024-02-04T04:52:31;5.53;;;4.90;;
14584;SDS011;7379;51.506;11.876;2024-02-04T04:54:58;6.60;;;4.90;;
14584;SDS011;7379;51.506;11.876;2024-02-04T04:57:26;5.45;;;4.80;;
14584;SDS011;7379;51.506;11.876;2024-02-04T04:59:52;5.53;;;4.95;;
14584;SDS011;7379;51.506;11.876;2024-02-04T05:02:19;6.05;;;5.15;;
14584;SDS011;7379;51.506;11.876;2024-02-04T05:04:46;5.57;;;4.65;;
14584;SDS011;7379;51.506;11.876;2024-02-04T05:07:13;6.05;;;5.03;;
14584;SDS011;7379;51.506;11.876;2024-02-04T05:09:40;5.75;;;4.80;;
14584;SDS011;7379;51.506;11.876;2024-02-04T05:12:08;5.78;;;4.43;;
14584;SDS011;7379;51.506;11.876;2024-02-04T05:14:36;5.15;;;4.57;;
14584;SDS011;7379;51.506;11.876;2024-02-04T05:17:03;5.20;;;4.70;;
14584;SDS011;7379;51.506;11.876;2024-02-04T05:19:30;5.35;;;4.53;;
14584;SDS011;7379;51.506;11.876;2024-02-04T05:21:57;5.38;;;4.30;;
14584;SDS011;7379;51.506;11.876;2024-02-04T05:24:23;5.22;;;4.43;;
14584;SDS011;7379;51.506;11.876;2024-02-04T05:26:50;5.80;;;4.95;;
14584;SDS011;7379;51.506;11.876;2024-02-04T05:29:17;4.97;;;4.30;;
14584;SDS011;7379;51.506;11.876;2024-02-04T05:31:45;5.90;;;4.97;;
14584;SDS011;7379;51.506;11.876;2024-02-04T05:34:12;7.47;;;4.97;;
14584;SDS011;7379;51.506;11.876;2024-02-04T05:36:39;4.93;;;4.43;;
14584;SDS011;7379;51.506;11.876;2024-02-04T05:39:09;5.15;;;4.45;;
14584;SDS011;7379;51.506;11.876;2024-02-04T05:41:37;5.40;;;4.10;;
14584;SDS011;7379;51.506;11.876;2024-02-04T05:44:04;5.35;;;4.68;;
14584;SDS011;7379;51.506;11.876;2024-02-04T05:46:31;5.45;;;4.28;;
14584;SDS011;7379;51.506;11.876;2024-02-04T05:48:59;4.97;;;4.28;;
14584;SDS011;7379;51.506;11.876;2024-02-04T05:51:26;5.47;;;4.50;;
14584;SDS011;7379;51.506;11.876;2024-02-04T05:53:53;5.45;;;4.43;;
14584;SDS011;7379;51.506;11.876;2024-02-04T05:56:20;6.22;;;4.63;;
14584;SDS011;7379;51.506;11.876;2024-02-04T05:58:47;5.28;;;4.78;;
14584;SDS011;7379;51.506;11.876;2024-02-04T06:01:15;4.97;;;4.30;;
14584;SDS011;7379;51.506;11.876;2024-02-04T06:03:42;7.90;;;4.50;;
14584;SDS011;7379;51.506;11.876;2024-02-04T06:06:10;5.38;;;4.18;;
14584;SDS011;7379;51.506;11.876;2024-02-04T06:08:40;4.43;;;4.03;;
14584;SDS011;7379;51.506;11.876;2024-02-04T06:11:09;5.55;;;4.60;;
14584;SDS011;7379;51.506;11.876;2024-02-04T06:13:36;4.82;;;4.20;;
14584;SDS011;7379;51.506;11.876;2024-02-04T06:16:03;4.85;;;4.32;;
14584;SDS011;7379;51.506;11.876;2024-02-04T06:18:30;6.00;;;4.10;;
14584;SDS011;7379;51.506;11.876;2024-02-04T06:20:57;4.50;;;4.05;;
14584;SDS011;7379;51.506;11.876;2024-02-04T06:23:25;6.35;;;4.10;;
14584;SDS011;7379;51.506;11.876;2024-02-04T06:25:52;5.05;;;4.55;;
14584;SDS011;7379;51.506;11.876;2024-02-04T06:28:18;4.78;;;3.92;;
14584;SDS011;7379;51.506;11.876;2024-02-04T06:30:44;5.55;;;3.95;;
14584;SDS011;7379;51.506;11.876;2024-02-04T06:33:11;4.30;;;3.85;;
14584;SDS011;7379;51.506;11.876;2024-02-04T06:35:38;4.43;;;4.03;;
14584;SDS011;7379;51.506;11.876;2024-02-04T06:38:04;4.22;;;3.83;;
14584;SDS011;7379;51.506;11.876;2024-02-04T06:40:33;4.28;;;3.80;;
14584;SDS011;7379;51.506;11.876;2024-02-04T06:42:59;7.18;;;4.05;;
14584;SDS011;7379;51.506;11.876;2024-02-04T06:45:26;5.25;;;4.18;;
14584;SDS011;7379;51.506;11.876;2024-02-04T06:47:53;5.32;;;3.60;;
14584;SDS011;7379;51.506;11.876;2024-02-04T06:50:20;4.20;;;3.80;;
14584;SDS011;7379;51.506;11.876;2024-02-04T06:52:47;4.00;;;3.55;;
14584;SDS011;7379;51.506;11.876;2024-02-04T06:55:13;4.00;;;3.60;;
14584;SDS011;7379;51.506;11.876;2024-02-04T06:57:42;4.50;;;3.42;;
14584;SDS011;7379;51.506;11.876;2024-02-04T07:00:09;3.35;;;3.05;;
14584;SDS011;7379;51.506;11.876;2024-02-04T07:02:36;3.40;;;3.10;;
14584;SDS011;7379;51.506;11.876;2024-02-04T07:05:04;3.53;;;3.10;;
14584;SDS011;7379;51.506;11.876;2024-02-04T07:07:31;4.13;;;3.45;;
14584;SDS011;7379;51.506;11.876;2024-02-04T07:09:58;3.40;;;2.80;;
14584;SDS011;7379;51.506;11.876;2024-02-04T07:12:25;3.40;;;3.10;;
14584;SDS011;7379;51.506;11.876;2024-02-04T07:14:53;3.97;;;2.90;;
14584;SDS011;7379;51.506;11.876;2024-02-04T07:17:20;2.92;;;2.63;;
14584;SDS011;7379;51.506;11.876;2024-02-04T07:19:47;3.15;;;2.85;;
14584;SDS011;7379;51.506;11.876;2024-02-04T07:22:14;3.50;;;2.83;;
14584;SDS011;7379;51.506;11.876;2024-02-04T07:24:41;3.22;;;2.92;;
14584;SDS011;7379;51.506;11.876;2024-02-04T07:27:08;2.60;;;2.40;;
14584;SDS011;7379;51.506;11.876;2024-02-04T07:29:35;3.33;;;2.53;;
14584;SDS011;7379;51.506;11.876;2024-02-04T07:32:03;2.90;;;2.70;;
14584;SDS011;7379;51.506;11.876;2024-02-04T07:34:30;2.90;;;2.60;;
14584;SDS011;7379;51.506;11.876;2024-02-04T07:36:56;2.60;;;2.40;;
14584;SDS011;7379;51.506;11.876;2024-02-04T07:39:23;3.85;;;3.03;;
14584;SDS011;7379;51.506;11.876;2024-02-04T07:41:50;2.45;;;2.25;;
14584;SDS011;7379;51.506;11.876;2024-02-04T07:44:18;2.90;;;2.70;;
14584;SDS011;7379;51.506;11.876;2024-02-04T07:46:45;2.72;;;2.50;;
14584;SDS011;7379;51.506;11.876;2024-02-04T07:49:13;2.60;;;2.40;;
14584;SDS011;7379;51.506;11.876;2024-02-04T07:51:40;2.90;;;2.60;;
14584;SDS011;7379;51.506;11.876;2024-02-04T07:54:07;3.58;;;2.30;;
14584;SDS011;7379;51.506;11.876;2024-02-04T07:56:33;2.53;;;2.33;;
14584;SDS011;7379;51.506;11.876;2024-02-04T07:59:00;2.50;;;2.30;;
14584;SDS011;7379;51.506;11.876;2024-02-04T08:01:28;2.95;;;2.30;;
14584;SDS011;7379;51.506;11.876;2024-02-04T08:03:55;2.38;;;2.17;;
14584;SDS011;7379;51.506;11.876;2024-02-04T08:06:23;2.30;;;2.10;;
14584;SDS011;7379;51.506;11.876;2024-02-04T08:08:50;2.40;;;2.10;;
14584;SDS011;7379;51.506;11.876;2024-02-04T08:11:17;2.35;;;2.15;;
14584;SDS011;7379;51.506;11.876;2024-02-04T08:13:44;2.40;;;2.08;;
14584;SDS011;7379;51.506;11.876;2024-02-04T08:16:11;2.30;;;2.10;;
14584;SDS011;7379;51.506;11.876;2024-02-04T08:18:37;2.42;;;2.08;;
14584;SDS011;7379;51.506;11.876;2024-02-04T08:21:04;3.00;;;2.17;;
14584;SDS011;7379;51.506;11.876;2024-02-04T08:23:33;2.05;;;1.95;;
14584;SDS011;7379;51.506;11.876;2024-02-04T08:25:59;2.28;;;2.08;;
14584;SDS011;7379;51.506;11.876;2024-02-04T08:28:26;2.28;;;2.08;;
14584;SDS011;7379;51.506;11.876;2024-02-04T08:30:53;2.17;;;1.98;;
14584;SDS011;7379;51.506;11.876;2024-02-04T08:33:19;1.92;;;1.83;;
14584;SDS011;7379;51.506;11.876;2024-02-04T08:35:46;2.25;;;2.00;;
14584;SDS011;7379;51.506;11.876;2024-02-04T08:38:13;2.28;;;2.08;;
14584;SDS011;7379;51.506;11.876;2024-02-04T08:40:42;2.20;;;2.00;;
14584;SDS011;7379;51.506;11.876;2024-02-04T08:43:08;3.35;;;2.10;;
14584;SDS011;7379;51.506;11.876;2024-02-04T08:45:35;2.33;;;2.13;;
14584;SDS011;7379;51.506;11.876;2024-02-04T08:48:02;2.30;;;2.10;;
14584;SDS011;7379;51.506;11.876;2024-02-04T08:50:29;2.38;;;2.17;;
14584;SDS011;7379;51.506;11.876;2024-02-04T08:52:56;2.27;;;2.07;;
14584;SDS011;7379;51.506;11.876;2024-02-04T08:55:22;2.78;;;2.22;;
14584;SDS011;7379;51.506;11.876;2024-02-04T08:57:51;2.55;;;2.20;;
14584;SDS011;7379;51.506;11.876;2024-02-04T09:00:18;2.40;;;2.20;;
14584;SDS011;7379;51.506;11.876;2024-02-04T09:02:46;3.03;;;2.05;;
14584;SDS011;7379;51.506;11.876;2024-02-04T09:05:13;2.47;;;2.28;;
14584;SDS011;7379;51.506;11.876;2024-02-04T09:07:41;2.65;;;2.45;;
14584;SDS011;7379;51.506;11.876;2024-02-04T09:10:08;2.40;;;2.20;;
14584;SDS011;7379;51.506;11.876;2024-02-04T09:12:35;2.70;;;2.45;;
14584;SDS011;7379;51.506;11.876;2024-02-04T09:15:03;3.03;;;2.60;;
14584;SDS011;7379;51.506;11.876;2024-02-04T09:17:31;2.40;;;2.20;;
14584;SDS011;7379;51.506;11.876;2024-02-04T09:19:58;2.60;;;2.40;;
14584;SDS011;7379;51.506;11.876;2024-02-04T09:22:24;2.70;;;2.50;;
14584;SDS011;7379;51.506;11.876;2024-02-04T09:24:51;2.53;;;2.20;;
14584;SDS011;7379;51.506;11.876;2024-02-04T09:27:18;4.28;;;2.55;;
14584;SDS011;7379;51.506;11.876;2024-02-04T09:29:45;3.25;;;2.75;;
14584;SDS011;7379;51.506;11.876;2024-02-04T09:32:13;2.60;;;2.40;;
14584;SDS011;7379;51.506;11.876;2024-02-04T09:34:40;2.67;;;2.45;;
14584;SDS011;7379;51.506;11.876;2024-02-04T09:37:07;2.65;;;2.45;;
14584;SDS011;7379;51.506;11.876;2024-02-04T09:39:34;3.40;;;2.70;;
14584;SDS011;7379;51.506;11.876;2024-02-04T09:42:01;3.17;;;2.70;;
14584;SDS011;7379;51.506;11.876;2024-02-04T09:44:28;3.00;;;2.70;;
14584;SDS011;7379;51.506;11.876;2024-02-04T09:46:57;3.10;;;2.40;;
14584;SDS011;7379;51.506;11.876;2024-02-04T09:49:27;2.70;;;2.50;;
14584;SDS011;7379;51.506;11.876;2024-02-04T09:51:55;2.97;;;2.67;;
14584;SDS011;7379;51.506;11.876;2024-02-04T09:54:25;2.83;;;2.58;;
14584;SDS011;7379;51.506;11.876;2024-02-04T09:56:55;2.83;;;2.55;;
14584;SDS011;7379;51.506;11.876;2024-02-04T09:59:22;3.00;;;2.70;;
14584;SDS011;7379;51.506;11.876;2024-02-04T10:01:48;3.90;;;2.83;;
14584;SDS011;7379;51.506;11.876;2024-02-04T10:04:15;2.67;;;2.47;;
14584;SDS011;7379;51.506;11.876;2024-02-04T10:06:44;2.80;;;2.50;;
14584;SDS011;7379;51.506;11.876;2024-02-04T10:09:10;4.03;;;2.53;;
14584;SDS011;7379;51.506;11.876;2024-02-04T10:11:37;3.10;;;2.80;;
14584;SDS011;7379;51.506;11.876;2024-02-04T10:14:04;3.20;;;2.90;;
14584;SDS011;7379;51.506;11.876;2024-02-04T10:16:31;3.20;;;2.90;;
14584;SDS011;7379;51.506;11.876;2024-02-04T10:19:01;3.05;;;2.70;;
14584;SDS011;7379;51.506;11.876;2024-02-04T10:21:28;3.20;;;2.90;;
14584;SDS011;7379;51.506;11.876;2024-02-04T10:23:57;3.63;;;3.10;;
14584;SDS011;7379;51.506;11.876;2024-02-04T10:26:24;3.15;;;2.85;;
14584;SDS011;7379;51.506;11.876;2024-02-04T10:28:57;2.90;;;2.60;;
14584;SDS011;7379;51.506;11.876;2024-02-04T10:31:24;3.15;;;2.63;;
14584;SDS011;7379;51.506;11.876;2024-02-04T10:33:52;3.63;;;3.20;;
14584;SDS011;7379;51.506;11.876;2024-02-04T10:36:19;3.53;;;3.13;;
14584;SDS011;7379;51.506;11.876;2024-02-04T10:38:45;3.03;;;2.72;;
14584;SDS011;7379;51.506;11.876;2024-02-04T10:41:14;3.20;;;2.90;;
14584;SDS011;7379;51.506;11.876;2024-02-04T10:43:42;3.40;;;2.90;;
14584;SDS011;7379;51.506;11.876;2024-02-04T10:46:11;3.25;;;2.95;;
14584;SDS011;7379;51.506;11.876;2024-02-04T10:48:41;4.15;;;3.13;;
14584;SDS011;7379;51.506;11.876;2024-02-04T10:51:13;4.63;;;3.00;;
14584;SDS011;7379;51.506;11.876;2024-02-04T10:53:41;3.30;;;3.00;;
14584;SDS011;7379;51.506;11.876;2024-02-04T10:56:11;3.42;;;3.13;;
14584;SDS011;7379;51.506;11.876;2024-02-04T10:58:44;3.97;;;3.33;;
14584;SDS011;7379;51.506;11.876;2024-02-04T11:01:13;3.72;;;3.38;;
14584;SDS011;7379;51.506;11.876;2024-02-04T11:03:41;4.82;;;3.25;;
14584;SDS011;7379;51.506;11.876;2024-02-04T11:06:07;3.70;;;3.40;;
14584;SDS011;7379;51.506;11.876;2024-02-04T11:08:36;3.92;;;3.53;;
14584;SDS011;7379;51.506;11.876;2024-02-04T11:11:04;4.40;;;3.90;;
14584;SDS011;7379;51.506;11.876;2024-02-04T11:13:32;4.28;;;3.85;;
14584;SDS011;7379;51.506;11.876;2024-02-04T11:16:01;4.25;;;3.85;;
14584;SDS011;7379;51.506;11.876;2024-02-04T11:18:58;4.32;;;3.92;;
14584;SDS011;7379;51.506;11.876;2024-02-04T11:21:39;4.88;;;3.65;;
14584;SDS011;7379;51.506;11.876;2024-02-04T11:24:24;4.00;;;3.60;;
14584;SDS011;7379;51.506;11.876;2024-02-04T11:27:03;4.35;;;3.95;;
14584;SDS011;7379;51.506;11.876;2024-02-04T11:29:32;4.43;;;4.03;;
14584;SDS011;7379;51.506;11.876;2024-02-04T11:32:00;4.32;;;3.92;;
14584;SDS011;7379;51.506;11.876;2024-02-04T11:34:27;4.72;;;3.92;;
14584;SDS011;7379;51.506;11.876;2024-02-04T11:36:55;4.38;;;3.97;;
14584;SDS011;7379;51.506;11.876;2024-02-04T11:39:24;4.05;;;3.55;;
14584;SDS011;7379;51.506;11.876;2024-02-04T11:41:50;5.28;;;4.25;;
14584;SDS011;7379;51.506;11.876;2024-02-04T11:44:21;4.40;;;4.00;;
14584;SDS011;7379;51.506;11.876;2024-02-04T11:46:49;5.32;;;4.07;;
14584;SDS011;7379;51.506;11.876;2024-02-04T11:49:17;4.45;;;4.05;;
14584;SDS011;7379;51.506;11.876;2024-02-04T11:51:47;4.55;;;4.15;;
14584;SDS011;7379;51.506;11.876;2024-02-04T11:54:14;4.43;;;4.03;;
14584;SDS011;7379;51.506;11.876;2024-02-04T11:56:43;4.40;;;4.00;;
14584;SDS011;7379;51.506;11.876;2024-02-04T11:59:10;4.35;;;3.63;;
14584;SDS011;7379;51.506;11.876;2024-02-04T12:01:39;4.38;;;3.97;;
14584;SDS011;7379;51.506;11.876;2024-02-04T12:04:10;4.90;;;4.40;;
14584;SDS011;7379;51.506;11.876;2024-02-04T12:06:39;4.15;;;3.75;;
14584;SDS011;7379;51.506;11.876;2024-02-04T12:09:07;4.57;;;3.97;;
14584;SDS011;7379;51.506;11.876;2024-02-04T12:11:35;4.03;;;3.63;;
14584;SDS011;7379;51.506;11.876;2024-02-04T12:14:03;3.88;;;3.58;;
14584;SDS011;7379;51.506;11.876;2024-02-04T12:16:31;4.22;;;3.30;;
14584;SDS011;7379;51.506;11.876;2024-02-04T12:19:00;5.25;;;3.30;;
14584;SDS011;7379;51.506;11.876;2024-02-04T12:21:29;3.15;;;2.85;;
14584;SDS011;7379;51.506;11.876;2024-02-04T12:23:56;2.75;;;2.50;;
14584;SDS011;7379;51.506;11.876;2024-02-04T12:26:24;3.58;;;2.10;;
14584;SDS011;7379;51.506;11.876;2024-02-04T12:28:51;3.08;;;2.40;;
14584;SDS011;7379;51.506;11.876;2024-02-04T12:31:18;2.80;;;2.10;;
14584;SDS011;7379;51.506;11.876;2024-02-04T12:33:55;2.30;;;2.10;;
14584;SDS011;7379;51.506;11.876;2024-02-04T12:36:23;4.43;;;2.28;;
14584;SDS011;7379;51.506;11.876;2024-02-04T12:38:53;2.10;;;1.90;;
14584;SDS011;7379;51.506;11.876;2024-02-04T12:41:21;3.35;;;2.10;;
14584;SDS011;7379;51.506;11.876;2024-02-04T12:43:51;3.03;;;2.15;;
14584;SDS011;7379;51.506;11.876;2024-02-04T12:46:19;3.03;;;2.25;;
14584;SDS011;7379;51.506;11.876;2024-02-04T12:48:50;2.30;;;1.92;;
14584;SDS011;7379;51.506;11.876;2024-02-04T12:51:23;2.15;;;2.03;;
14584;SDS011;7379;51.506;11.876;2024-02-04T12:53:51;2.35;;;2.05;;
14584;SDS011;7379;51.506;11.876;2024-02-04T12:56:39;2.88;;;2.00;;
14584;SDS011;7379;51.506;11.876;2024-02-04T12:59:06;2.58;;;2.10;;
14584;SDS011;7379;51.506;11.876;2024-02-04T13:01:34;2.70;;;2.22;;
14584;SDS011;7379;51.506;11.876;2024-02-04T13:04:01;2.25;;;2.05;;
14584;SDS011;7379;51.506;11.876;2024-02-04T13:06:28;2.70;;;2.20;;
14584;SDS011;7379;51.506;11.876;2024-02-04T13:08:55;2.58;;;2.20;;
14584;SDS011;7379;51.506;11.876;2024-02-04T13:11:24;2.42;;;2.22;;
14584;SDS011;7379;51.506;11.876;2024-02-04T13:13:50;2.63;;;2.13;;
14584;SDS011;7379;51.506;11.876;2024-02-04T13:16:18;2.92;;;2.25;;
14584;SDS011;7379;51.506;11.876;2024-02-04T13:18:51;2.92;;;2.03;;
14584;SDS011;7379;51.506;11.876;2024-02-04T13:21:18;3.38;;;2.13;;
14584;SDS011;7379;51.506;11.876;2024-02-04T13:23:46;2.42;;;2.00;;
14584;SDS011;7379;51.506;11.876;2024-02-04T13:26:13;2.33;;;1.80;;
14584;SDS011;7379;51.506;11.876;2024-02-04T13:28:42;2.20;;;2.00;;
14584;SDS011;7379;51.506;11.876;2024-02-04T13:31:09;2.03;;;1.80;;
14584;SDS011;7379;51.506;11.876;2024-02-04T13:33:37;2.08;;;1.80;;
14584;SDS011;7379;51.506;11.876;2024-02-04T13:36:05;2.08;;;1.88;;
14584;SDS011;7379;51.506;11.876;2024-02-04T13:38:33;3.40;;;1.80;;
14584;SDS011;7379;51.506;11.876;2024-02-04T13:40:59;2.90;;;1.73;;
14584;SDS011;7379;51.506;11.876;2024-02-04T13:43:26;2.13;;;1.80;;
14584;SDS011;7379;51.506;11.876;2024-02-04T13:45:54;2.60;;;1.80;;
14584;SDS011;7379;51.506;11.876;2024-02-04T13:48:21;2.67;;;1.85;;
14584;SDS011;7379;51.506;11.876;2024-02-04T13:50:50;2.08;;;1.70;;
14584;SDS011;7379;51.506;11.876;2024-02-04T13:53:19;2.80;;;1.90;;
14584;SDS011;7379;51.506;11.876;2024-02-04T13:55:46;2.65;;;1.80;;
14584;SDS011;7379;51.506;11.876;2024-02-04T13:58:12;4.53;;;2.22;;
14584;SDS011;7379;51.506;11.876;2024-02-04T14:00:39;1.98;;;1.55;;
14584;SDS011;7379;51.506;11.876;2024-02-04T14:03:07;2.05;;;1.80;;
14584;SDS011;7379;51.506;11.876;2024-02-04T14:05:34;2.65;;;1.90;;
14584;SDS011;7379;51.506;11.876;2024-02-04T14:08:01;2.65;;;1.75;;
14584;SDS011;7379;51.506;11.876;2024-02-04T14:10:28;2.88;;;1.90;;
14584;SDS011;7379;51.506;11.876;2024-02-04T14:12:55;1.90;;;1.77;;
14584;SDS011;7379;51.506;11.876;2024-02-04T14:15:22;3.00;;;1.70;;
14584;SDS011;7379;51.506;11.876;2024-02-04T14:17:49;1.67;;;1.58;;
14584;SDS011;7379;51.506;11.876;2024-02-04T14:20:17;2.28;;;1.95;;
14584;SDS011;7379;51.506;11.876;2024-02-04T14:22:44;2.72;;;1.98;;
14584;SDS011;7379;51.506;11.876;2024-02-04T14:25:10;2.30;;;1.90;;
14584;SDS011;7379;51.506;11.876;2024-02-04T14:27:38;1.73;;;1.63;;
14584;SDS011;7379;51.506;11.876;2024-02-04T14:30:05;2.40;;;1.90;;
14584;SDS011;7379;51.506;11.876;2024-02-04T14:32:33;2.25;;;1.95;;
14584;SDS011;7379;51.506;11.876;2024-02-04T14:34:59;2.13;;;1.75;;
14584;SDS011;7379;51.506;11.876;2024-02-04T14:37:30;2.20;;;1.80;;
14584;SDS011;7379;51.506;11.876;2024-02-04T14:39:57;2.15;;;1.95;;
14584;SDS011;7379;51.506;11.876;2024-02-04T14:42:25;2.83;;;1.85;;
14584;SDS011;7379;51.506;11.876;2024-02-04T14:44:51;2.75;;;1.88;;
14584;SDS011;7379;51.506;11.876;2024-02-04T14:47:18;2.00;;;1.80;;
14584;SDS011;7379;51.506;11.876;2024-02-04T14:49:45;4.45;;;1.90;;
14584;SDS011;7379;51.506;11.876;2024-02-04T14:52:12;2.88;;;1.95;;